createdAt,value
2019-03-12T00:00:31.097Z,5.22
2019-03-12T00:01:31.040Z,5.20
2019-03-12T00:02:31.036Z,5.18
2019-03-12T00:03:31.040Z,5.22
2019-03-12T00:04:31.009Z,5.20
2019-03-12T00:05:31.009Z,5.18
2019-03-12T00:06:31.014Z,5.17
2019-03-12T00:07:30.977Z,5.22
2019-03-12T00:08:30.968Z,5.12
2019-03-12T00:09:30.954Z,5.06
2019-03-12T00:10:30.946Z,5.09
2019-03-12T00:11:31.078Z,5.06
2019-03-12T00:12:30.920Z,5.07
2019-03-12T00:13:30.911Z,5.10
2019-03-12T00:14:30.905Z,5.22
2019-03-12T00:15:30.891Z,5.06
2019-03-12T00:16:30.898Z,4.96
2019-03-12T00:17:30.879Z,4.96
2019-03-12T00:18:30.858Z,5.00
2019-03-12T00:19:30.848Z,5.02
2019-03-12T00:20:30.834Z,4.96
2019-03-12T00:21:30.847Z,4.97
2019-03-12T00:22:30.816Z,5.02
2019-03-12T00:23:30.819Z,5.06
2019-03-12T00:24:30.792Z,5.03
2019-03-12T00:25:30.782Z,5.03
2019-03-12T00:26:30.789Z,5.02
2019-03-12T00:27:30.763Z,4.97
2019-03-12T00:28:30.759Z,4.96
2019-03-12T00:29:30.751Z,5.03
2019-03-12T00:30:30.730Z,4.96
2019-03-12T00:31:30.744Z,5.03
2019-03-12T00:32:30.712Z,4.94
2019-03-12T00:33:30.698Z,5.02
2019-03-12T00:34:30.690Z,4.96
2019-03-12T00:35:30.721Z,4.94
2019-03-12T00:36:30.695Z,5.00
2019-03-12T00:37:30.656Z,4.94
2019-03-12T00:38:30.651Z,5.02
2019-03-12T00:39:30.634Z,5.04
2019-03-12T00:40:30.623Z,5.07
2019-03-12T00:41:30.632Z,5.06
2019-03-12T00:42:30.618Z,5.07
2019-03-12T00:43:30.591Z,5.09
2019-03-12T00:44:30.583Z,5.17
2019-03-12T00:45:30.570Z,5.07
2019-03-12T00:46:30.576Z,4.94
2019-03-12T00:47:30.551Z,4.97
2019-03-12T00:48:30.557Z,4.92
2019-03-12T00:49:30.527Z,5.03
2019-03-12T00:50:30.520Z,4.91
2019-03-12T00:51:30.526Z,4.86
2019-03-12T00:52:30.492Z,4.91
2019-03-12T00:53:30.486Z,4.86
2019-03-12T00:54:30.488Z,4.91
2019-03-12T00:55:30.460Z,4.88
2019-03-12T00:56:30.469Z,4.78
2019-03-12T00:57:30.463Z,4.80
2019-03-12T00:58:30.432Z,4.70
2019-03-12T00:59:30.423Z,4.55
2019-03-12T01:00:30.431Z,4.55
2019-03-12T01:01:30.418Z,4.45
2019-03-12T01:02:30.402Z,4.44
2019-03-12T01:03:30.392Z,4.44
2019-03-12T01:04:30.366Z,4.40
2019-03-12T01:05:30.353Z,4.33
2019-03-12T01:06:30.381Z,4.32
2019-03-12T01:07:30.335Z,4.36
2019-03-12T01:08:30.329Z,4.34
2019-03-12T01:09:30.309Z,4.33
2019-03-12T01:10:30.321Z,4.33
2019-03-12T01:11:30.308Z,4.27
2019-03-12T01:12:30.277Z,4.26
2019-03-12T01:13:30.286Z,4.24
2019-03-12T01:14:30.262Z,4.18
2019-03-12T01:15:30.247Z,4.02
2019-03-12T01:16:30.254Z,4.02
2019-03-12T01:17:30.234Z,4.12
2019-03-12T01:18:30.214Z,4.16
2019-03-12T01:19:30.225Z,4.16
2019-03-12T01:20:30.196Z,4.23
2019-03-12T01:21:30.204Z,4.16
2019-03-12T01:22:30.170Z,4.16
2019-03-12T01:23:30.173Z,4.29
2019-03-12T01:24:30.152Z,4.27
2019-03-12T01:25:30.215Z,4.36
2019-03-12T01:26:30.146Z,4.44
2019-03-12T01:27:30.120Z,4.45
2019-03-12T01:28:30.112Z,4.45
2019-03-12T01:29:30.106Z,4.44
2019-03-12T01:30:30.091Z,4.62
2019-03-12T01:31:30.113Z,4.59
2019-03-12T01:32:30.065Z,4.65
2019-03-12T01:33:30.055Z,4.72
2019-03-12T01:34:30.046Z,4.73
2019-03-12T01:35:30.038Z,4.73
2019-03-12T01:36:30.125Z,4.72
2019-03-12T01:37:30.028Z,4.82
2019-03-12T01:38:30.001Z,4.82
2019-03-12T01:39:29.990Z,4.75
2019-03-12T01:40:29.980Z,4.73
2019-03-12T01:41:30.004Z,4.73
2019-03-12T01:42:29.958Z,4.80
2019-03-12T01:43:29.967Z,4.78
2019-03-12T01:44:29.938Z,4.80
2019-03-12T01:45:29.926Z,4.78
2019-03-12T01:46:29.915Z,4.80
2019-03-12T01:47:29.930Z,4.88
2019-03-12T01:48:29.893Z,4.85
2019-03-12T01:49:29.897Z,4.88
2019-03-12T01:50:29.871Z,4.84
2019-03-12T01:51:31.172Z,4.78
2019-03-12T01:52:29.874Z,4.80
2019-03-12T01:53:29.838Z,4.78
2019-03-12T01:54:29.828Z,4.78
2019-03-12T01:55:29.836Z,4.78
2019-03-12T01:56:29.806Z,4.84
2019-03-12T01:57:29.816Z,4.96
2019-03-12T01:58:29.805Z,4.84
2019-03-12T01:59:29.775Z,4.80
2019-03-12T02:00:29.769Z,4.91
2019-03-12T02:01:29.774Z,4.89
2019-03-12T02:02:29.766Z,4.91
2019-03-12T02:03:29.744Z,4.91
2019-03-12T02:04:29.756Z,4.80
2019-03-12T02:05:29.733Z,4.82
2019-03-12T02:06:29.700Z,4.72
2019-03-12T02:07:29.708Z,4.78
2019-03-12T02:08:29.698Z,4.73
2019-03-12T02:09:29.669Z,4.66
2019-03-12T02:10:29.656Z,4.54
2019-03-12T02:11:29.661Z,4.50
2019-03-12T02:12:29.658Z,4.34
2019-03-12T02:13:29.625Z,4.24
2019-03-12T02:14:29.621Z,4.33
2019-03-12T02:15:29.602Z,4.27
2019-03-12T02:16:29.592Z,4.26
2019-03-12T02:17:29.617Z,4.23
2019-03-12T02:18:29.572Z,4.09
2019-03-12T02:19:29.560Z,4.09
2019-03-12T02:20:29.555Z,4.08
2019-03-12T02:21:29.540Z,3.98
2019-03-12T02:22:29.551Z,4.04
2019-03-12T02:23:29.547Z,3.98
2019-03-12T02:24:29.526Z,4.02
2019-03-12T02:25:29.496Z,3.80
2019-03-12T02:26:29.487Z,3.79
2019-03-12T02:27:29.501Z,3.70
2019-03-12T02:28:29.463Z,3.72
2019-03-12T02:29:29.451Z,3.78
2019-03-12T02:30:29.447Z,3.76
2019-03-12T02:31:29.454Z,3.73
2019-03-12T02:32:29.446Z,3.73
2019-03-12T02:33:29.413Z,3.79
2019-03-12T02:34:29.398Z,3.78
2019-03-12T02:35:29.439Z,3.78
2019-03-12T02:36:29.378Z,3.78
2019-03-12T02:37:29.403Z,3.84
2019-03-12T02:38:29.362Z,3.84
2019-03-12T02:39:29.350Z,3.86
2019-03-12T02:40:29.335Z,3.96
2019-03-12T02:41:29.323Z,3.90
2019-03-12T02:42:29.344Z,3.96
2019-03-12T02:43:29.319Z,3.94
2019-03-12T02:44:29.297Z,3.88
2019-03-12T02:45:29.286Z,3.91
2019-03-12T02:46:29.269Z,3.73
2019-03-12T02:47:29.280Z,3.75
2019-03-12T02:48:29.250Z,3.70
2019-03-12T02:49:29.249Z,3.70
2019-03-12T02:50:29.234Z,3.66
2019-03-12T02:51:29.216Z,3.78
2019-03-12T02:52:29.230Z,3.83
2019-03-12T02:53:29.196Z,3.86
2019-03-12T02:54:29.193Z,3.86
2019-03-12T02:55:29.207Z,3.87
2019-03-12T02:56:29.212Z,3.88
2019-03-12T02:57:29.180Z,3.84
2019-03-12T02:58:29.142Z,3.80
2019-03-12T02:59:29.131Z,3.90
2019-03-12T03:00:29.136Z,3.84
2019-03-12T03:01:29.109Z,3.84
2019-03-12T03:02:29.119Z,3.84
2019-03-12T03:03:29.113Z,3.86
2019-03-12T03:04:29.076Z,3.86
2019-03-12T03:05:29.070Z,3.86
2019-03-12T03:06:29.058Z,3.75
2019-03-12T03:07:29.067Z,3.75
2019-03-12T03:08:29.094Z,3.72
2019-03-12T03:09:29.023Z,3.78
2019-03-12T03:10:29.016Z,3.75
2019-03-12T03:11:29.001Z,3.80
2019-03-12T03:12:29.036Z,3.75
2019-03-12T03:13:28.980Z,3.79
2019-03-12T03:14:28.982Z,3.86
2019-03-12T03:15:28.958Z,3.88
2019-03-12T03:16:28.971Z,3.84
2019-03-12T03:17:28.957Z,3.80
2019-03-12T03:18:28.937Z,3.80
2019-03-12T03:19:28.938Z,3.84
2019-03-12T03:20:28.927Z,3.78
2019-03-12T03:21:28.893Z,3.83
2019-03-12T03:22:28.906Z,3.87
2019-03-12T03:23:28.872Z,3.84
2019-03-12T03:24:28.864Z,3.86
2019-03-12T03:25:28.874Z,3.86
2019-03-12T03:26:28.870Z,3.84
2019-03-12T03:27:29.644Z,3.79
2019-03-12T03:28:28.853Z,3.83
2019-03-12T03:29:28.828Z,3.79
2019-03-12T03:30:28.816Z,3.80
2019-03-12T03:31:28.796Z,3.79
2019-03-12T03:32:28.797Z,3.79
2019-03-12T03:33:29.020Z,3.80
2019-03-12T03:34:29.173Z,3.79
2019-03-12T03:35:28.751Z,3.83
2019-03-12T03:36:28.731Z,3.84
2019-03-12T03:37:28.737Z,3.94
2019-03-12T03:38:28.727Z,3.90
2019-03-12T03:39:28.700Z,4.00
2019-03-12T03:40:28.814Z,4.00
2019-03-12T03:41:28.680Z,3.97
2019-03-12T03:42:28.664Z,3.98
2019-03-12T03:43:28.748Z,3.97
2019-03-12T03:44:28.658Z,4.02
2019-03-12T03:45:28.633Z,4.02
2019-03-12T03:46:28.626Z,3.96
2019-03-12T03:47:28.619Z,3.96
2019-03-12T03:48:28.623Z,3.94
2019-03-12T03:49:28.593Z,3.93
2019-03-12T03:50:28.603Z,3.98
2019-03-12T03:51:28.565Z,4.00
2019-03-12T03:52:28.556Z,3.97
2019-03-12T03:53:28.579Z,3.97
2019-03-12T03:54:28.536Z,4.05
2019-03-12T03:55:28.532Z,4.09
2019-03-12T03:56:28.561Z,4.02
2019-03-12T03:57:28.527Z,3.96
2019-03-12T03:58:28.528Z,4.00
2019-03-12T03:59:28.481Z,3.98
2019-03-12T04:00:28.489Z,4.06
2019-03-12T04:01:28.463Z,4.09
2019-03-12T04:02:28.448Z,4.04
2019-03-12T04:03:28.473Z,4.14
2019-03-12T04:04:28.429Z,4.02
2019-03-12T04:05:28.416Z,4.09
2019-03-12T04:06:28.407Z,4.09
2019-03-12T04:07:28.400Z,4.16
2019-03-12T04:08:28.428Z,4.04
2019-03-12T04:09:28.402Z,3.98
2019-03-12T04:10:28.366Z,3.94
2019-03-12T04:11:28.361Z,3.97
2019-03-12T04:12:28.343Z,3.98
2019-03-12T04:13:28.352Z,4.02
2019-03-12T04:14:28.327Z,4.05
2019-03-12T04:15:28.316Z,4.05
2019-03-12T04:16:28.302Z,4.09
2019-03-12T04:17:28.286Z,4.08
2019-03-12T04:18:28.302Z,4.05
2019-03-12T04:19:28.265Z,4.02
2019-03-12T04:20:28.264Z,4.11
2019-03-12T04:21:28.254Z,4.12
2019-03-12T04:22:28.237Z,4.04
2019-03-12T04:23:28.260Z,4.14
2019-03-12T04:24:28.210Z,4.15
2019-03-12T04:25:28.200Z,4.18
2019-03-12T04:26:28.189Z,4.20
2019-03-12T04:27:28.181Z,4.14
2019-03-12T04:28:28.191Z,4.23
2019-03-12T04:29:28.180Z,4.18
2019-03-12T04:30:28.152Z,4.26
2019-03-12T04:31:28.136Z,4.26
2019-03-12T04:32:28.125Z,4.27
2019-03-12T04:33:28.141Z,4.26
2019-03-12T04:34:28.102Z,4.32
2019-03-12T04:35:28.104Z,4.33
2019-03-12T04:36:28.084Z,4.34
2019-03-12T04:37:28.074Z,4.42
2019-03-12T04:38:28.083Z,4.52
2019-03-12T04:39:28.048Z,4.44
2019-03-12T04:40:28.041Z,4.50
2019-03-12T04:41:28.044Z,4.47
2019-03-12T04:42:28.017Z,4.41
2019-03-12T04:43:28.026Z,4.44
2019-03-12T04:44:27.996Z,4.44
2019-03-12T04:45:27.990Z,4.44
2019-03-12T04:46:27.974Z,4.45
2019-03-12T04:47:27.989Z,4.40
2019-03-12T04:48:27.970Z,4.45
2019-03-12T04:49:27.943Z,4.37
2019-03-12T04:50:27.931Z,4.50
2019-03-12T04:51:27.919Z,4.37
2019-03-12T04:52:27.908Z,4.45
2019-03-12T04:53:27.932Z,4.48
2019-03-12T04:54:27.893Z,4.40
2019-03-12T04:55:27.886Z,4.47
2019-03-12T04:56:27.865Z,4.48
2019-03-12T04:57:27.853Z,4.47
2019-03-12T04:58:27.866Z,4.44
2019-03-12T04:59:27.848Z,4.51
2019-03-12T05:00:27.828Z,4.48
2019-03-12T05:01:27.813Z,4.51
2019-03-12T05:02:27.812Z,4.59
2019-03-12T05:03:27.808Z,4.50
2019-03-12T05:04:27.780Z,4.45
2019-03-12T05:05:27.785Z,4.47
2019-03-12T05:06:27.784Z,4.54
2019-03-12T05:07:27.749Z,4.65
2019-03-12T05:08:27.758Z,4.63
2019-03-12T05:09:27.726Z,4.58
2019-03-12T05:10:27.714Z,4.52
2019-03-12T05:11:27.709Z,4.70
2019-03-12T05:12:30.502Z,4.73
2019-03-12T05:13:27.683Z,4.67
2019-03-12T05:14:27.694Z,4.69
2019-03-12T05:15:27.673Z,4.70
2019-03-12T05:16:27.650Z,4.60
2019-03-12T05:17:27.642Z,4.72
2019-03-12T05:18:27.648Z,4.66
2019-03-12T05:19:27.638Z,4.60
2019-03-12T05:20:27.609Z,4.58
2019-03-12T05:21:27.597Z,4.67
2019-03-12T05:22:27.590Z,4.67
2019-03-12T05:23:27.578Z,4.59
2019-03-12T05:24:27.600Z,4.62
2019-03-12T05:25:27.558Z,4.59
2019-03-12T05:26:27.543Z,4.58
2019-03-12T05:27:27.533Z,4.58
2019-03-12T05:28:27.526Z,4.66
2019-03-12T05:29:27.536Z,4.67
2019-03-12T05:30:27.508Z,4.66
2019-03-12T05:31:27.498Z,4.73
2019-03-12T05:32:27.481Z,4.69
2019-03-12T05:33:27.469Z,4.75
2019-03-12T05:34:27.478Z,4.72
2019-03-12T05:35:27.451Z,4.77
2019-03-12T05:36:27.437Z,4.80
2019-03-12T05:37:27.442Z,4.75
2019-03-12T05:38:27.449Z,4.70
2019-03-12T05:39:27.433Z,4.77
2019-03-12T05:40:27.393Z,4.80
2019-03-12T05:41:27.387Z,4.84
2019-03-12T05:42:27.371Z,4.82
2019-03-12T05:43:27.444Z,4.84
2019-03-12T05:44:27.372Z,4.88
2019-03-12T05:45:27.343Z,4.85
2019-03-12T05:46:27.329Z,4.94
2019-03-12T05:47:27.323Z,4.91
2019-03-12T05:48:27.308Z,4.86
2019-03-12T05:49:27.387Z,4.91
2019-03-12T05:50:27.288Z,4.94
2019-03-12T05:51:27.275Z,5.00
2019-03-12T05:52:27.267Z,5.02
2019-03-12T05:53:27.273Z,5.02
2019-03-12T05:54:27.266Z,5.03
2019-03-12T05:55:27.239Z,4.96
2019-03-12T05:56:27.222Z,5.09
2019-03-12T05:57:27.212Z,5.06
2019-03-12T05:58:27.201Z,5.09
2019-03-12T05:59:27.213Z,5.09
2019-03-12T06:00:27.183Z,5.10
2019-03-12T06:01:27.173Z,5.09
2019-03-12T06:02:27.178Z,5.10
2019-03-12T06:03:27.149Z,5.10
2019-03-12T06:04:27.157Z,5.22
2019-03-12T06:05:27.129Z,5.18
2019-03-12T06:06:27.121Z,5.20
2019-03-12T06:07:27.112Z,5.27
2019-03-12T06:08:27.111Z,5.22
2019-03-12T06:09:30.455Z,5.35
2019-03-12T06:10:27.081Z,5.36
2019-03-12T06:11:27.069Z,5.24
2019-03-12T06:12:27.066Z,5.38
2019-03-12T06:13:27.049Z,5.18
2019-03-12T06:14:27.069Z,5.35
2019-03-12T06:15:27.023Z,5.35
2019-03-12T06:16:27.011Z,5.31
2019-03-12T06:17:27.004Z,5.35
2019-03-12T06:18:26.989Z,5.35
2019-03-12T06:19:27.046Z,5.33
2019-03-12T06:20:26.971Z,5.18
2019-03-12T06:21:26.954Z,5.36
2019-03-12T06:22:26.944Z,5.38
2019-03-12T06:23:26.939Z,5.36
2019-03-12T06:24:26.958Z,5.30
2019-03-12T06:25:26.924Z,5.31
2019-03-12T06:26:26.936Z,5.43
2019-03-12T06:27:26.893Z,5.42
2019-03-12T06:28:26.889Z,5.38
2019-03-12T06:29:26.936Z,5.40
2019-03-12T06:30:26.862Z,5.42
2019-03-12T06:31:26.854Z,5.40
2019-03-12T06:32:26.846Z,5.40
2019-03-12T06:33:26.830Z,5.35
2019-03-12T06:34:26.893Z,5.45
2019-03-12T06:35:26.864Z,5.36
2019-03-12T06:36:26.796Z,5.42
2019-03-12T06:37:26.788Z,5.42
2019-03-12T06:38:26.779Z,5.40
2019-03-12T06:39:26.788Z,5.31
2019-03-12T06:40:26.756Z,5.33
2019-03-12T06:41:26.746Z,5.35
2019-03-12T06:42:26.729Z,5.42
2019-03-12T06:43:26.728Z,5.33
2019-03-12T06:44:26.755Z,5.35
2019-03-12T06:45:26.699Z,5.38
2019-03-12T06:46:26.688Z,5.45
2019-03-12T06:47:26.681Z,5.38
2019-03-12T06:48:26.668Z,5.39
2019-03-12T06:49:26.683Z,5.42
2019-03-12T06:50:26.648Z,5.46
2019-03-12T06:51:26.637Z,5.49
2019-03-12T06:52:26.625Z,5.27
2019-03-12T06:53:26.656Z,5.35
2019-03-12T06:54:26.638Z,5.31
2019-03-12T06:55:26.592Z,5.30
2019-03-12T06:56:26.590Z,5.30
2019-03-12T06:57:26.570Z,5.36
2019-03-12T06:58:26.568Z,5.33
2019-03-12T06:59:26.558Z,5.36
2019-03-12T07:00:26.572Z,5.38
2019-03-12T07:01:26.528Z,5.39
2019-03-12T07:02:26.528Z,5.38
2019-03-12T07:03:26.527Z,5.35
2019-03-12T07:04:26.501Z,5.46
2019-03-12T07:05:26.504Z,5.53
2019-03-12T07:06:26.481Z,5.57
2019-03-12T07:07:26.462Z,5.61
2019-03-12T07:08:26.459Z,5.54
2019-03-12T07:09:26.464Z,5.53
2019-03-12T07:10:26.452Z,5.51
2019-03-12T07:11:26.422Z,5.53
2019-03-12T07:12:26.416Z,5.61
2019-03-12T07:13:26.400Z,5.56
2019-03-12T07:14:26.427Z,5.57
2019-03-12T07:15:26.405Z,5.67
2019-03-12T07:16:26.371Z,5.67
2019-03-12T07:17:26.391Z,5.75
2019-03-12T07:18:26.346Z,5.81
2019-03-12T07:19:26.359Z,5.76
2019-03-12T07:20:26.466Z,5.79
2019-03-12T07:21:26.355Z,5.91
2019-03-12T07:22:26.309Z,5.89
2019-03-12T07:23:26.303Z,5.96
2019-03-12T07:24:26.313Z,5.86
2019-03-12T07:25:26.297Z,5.82
2019-03-12T07:26:26.295Z,5.97
2019-03-12T07:27:26.251Z,6.01
2019-03-12T07:28:26.241Z,5.93
2019-03-12T07:29:26.264Z,6.04
2019-03-12T07:30:26.256Z,6.01
2019-03-12T07:31:26.440Z,6.06
2019-03-12T07:32:26.232Z,6.01
2019-03-12T07:33:26.192Z,6.18
2019-03-12T07:34:36.120Z,6.12
2019-03-12T07:35:27.193Z,6.21
2019-03-12T07:36:26.153Z,6.22
2019-03-12T07:37:26.143Z,6.38
2019-03-12T07:38:26.146Z,6.41
2019-03-12T07:39:26.123Z,6.43
2019-03-12T07:40:26.152Z,6.44
2019-03-12T07:41:32.309Z,6.55
2019-03-12T07:42:27.088Z,6.44
2019-03-12T07:43:26.082Z,6.61
2019-03-12T07:44:26.108Z,6.64
2019-03-12T07:45:26.083Z,6.59
2019-03-12T07:46:26.047Z,6.55
2019-03-12T07:47:35.244Z,6.58
2019-03-12T07:48:27.032Z,6.58
2019-03-12T07:49:26.018Z,6.64
2019-03-12T07:50:26.032Z,6.55
2019-03-12T07:51:25.997Z,6.59
2019-03-12T07:52:25.988Z,6.54
2019-03-12T07:53:25.986Z,6.66
2019-03-12T07:54:25.964Z,6.66
2019-03-12T07:55:25.994Z,6.74
2019-03-12T07:56:25.954Z,6.71
2019-03-12T07:57:25.943Z,6.71
2019-03-12T07:58:35.133Z,6.77
2019-03-12T07:59:26.944Z,6.79
2019-03-12T08:00:25.925Z,6.79
2019-03-12T08:01:25.894Z,6.84
2019-03-12T08:02:25.876Z,6.91
2019-03-12T08:03:25.866Z,6.97
2019-03-12T08:04:25.883Z,6.92
2019-03-12T08:05:28.301Z,6.85
2019-03-12T08:06:25.835Z,6.91
2019-03-12T08:07:25.840Z,7.02
2019-03-12T08:08:25.818Z,7.10
2019-03-12T08:09:25.811Z,7.03
2019-03-12T08:10:25.828Z,7.07
2019-03-12T08:11:25.799Z,7.15
2019-03-12T08:12:25.773Z,7.13
2019-03-12T08:13:25.765Z,7.12
2019-03-12T08:14:27.021Z,7.10
2019-03-12T08:15:25.767Z,7.06
2019-03-12T08:16:25.729Z,6.99
2019-03-12T08:17:25.731Z,7.09
2019-03-12T08:18:25.708Z,7.07
2019-03-12T08:19:25.703Z,7.10
2019-03-12T08:20:25.722Z,7.16
2019-03-12T08:21:25.675Z,7.23
2019-03-12T08:22:25.668Z,7.10
2019-03-12T08:23:25.658Z,7.17
2019-03-12T08:24:25.672Z,7.30
2019-03-12T08:25:25.657Z,7.27
2019-03-12T08:26:25.624Z,7.34
2019-03-12T08:27:26.260Z,7.45
2019-03-12T08:28:25.604Z,7.45
2019-03-12T08:29:25.599Z,7.53
2019-03-12T08:30:25.617Z,7.49
2019-03-12T08:31:25.573Z,7.50
2019-03-12T08:32:25.563Z,7.57
2019-03-12T08:33:25.567Z,7.45
2019-03-12T08:34:25.540Z,7.40
2019-03-12T08:35:25.539Z,7.43
2019-03-12T08:36:25.543Z,7.49
2019-03-12T08:37:25.512Z,7.50
2019-03-12T08:38:25.506Z,7.57
2019-03-12T08:39:25.501Z,7.55
2019-03-12T08:40:25.514Z,7.53
2019-03-12T08:41:25.488Z,7.55
2019-03-12T08:42:25.461Z,7.55
2019-03-12T08:43:25.452Z,7.58
2019-03-12T08:44:26.460Z,7.52
2019-03-12T08:45:25.435Z,7.69
2019-03-12T08:46:25.461Z,7.72
2019-03-12T08:47:25.407Z,7.82
2019-03-12T08:48:25.409Z,7.97
2019-03-12T08:49:25.388Z,8.18
2019-03-12T08:50:25.377Z,8.16
2019-03-12T08:51:25.393Z,8.22
2019-03-12T08:52:25.363Z,8.28
2019-03-12T08:53:25.356Z,8.29
2019-03-12T08:54:25.347Z,8.40
2019-03-12T08:55:25.323Z,8.37
2019-03-12T08:56:25.337Z,8.34
2019-03-12T08:57:25.315Z,8.40
2019-03-12T08:58:25.296Z,8.41
2019-03-12T08:59:25.291Z,8.30
2019-03-12T09:00:25.272Z,8.38
2019-03-12T09:01:25.288Z,8.34
2019-03-12T09:02:25.254Z,8.28
2019-03-12T09:03:25.244Z,8.28
2019-03-12T09:04:25.254Z,8.26
2019-03-12T09:05:25.247Z,8.36
2019-03-12T09:06:25.243Z,8.36
2019-03-12T09:07:25.198Z,8.36
2019-03-12T09:08:25.256Z,8.52
2019-03-12T09:09:25.210Z,8.53
2019-03-12T09:10:25.168Z,8.56
2019-03-12T09:11:25.206Z,8.81
2019-03-12T09:12:25.154Z,8.74
2019-03-12T09:13:25.139Z,8.92
2019-03-12T09:14:25.130Z,9.02
2019-03-12T09:15:25.114Z,9.11
2019-03-12T09:16:25.142Z,9.05
2019-03-12T09:17:25.093Z,9.11
2019-03-12T09:18:25.089Z,9.14
2019-03-12T09:19:25.073Z,9.48
2019-03-12T09:20:25.062Z,9.84
2019-03-12T09:21:25.072Z,9.79
2019-03-12T09:22:25.042Z,9.91
2019-03-12T09:23:25.061Z,10.07
2019-03-12T09:24:25.022Z,9.96
2019-03-12T09:25:25.011Z,9.94
2019-03-12T09:26:25.056Z,10.04
2019-03-12T09:27:24.987Z,10.26
2019-03-12T09:28:24.986Z,10.20
2019-03-12T09:29:24.966Z,10.14
2019-03-12T09:30:24.959Z,9.87
2019-03-12T09:31:24.968Z,9.96
2019-03-12T09:32:24.948Z,9.90
2019-03-12T09:33:24.923Z,9.78
2019-03-12T09:34:24.912Z,9.69
2019-03-12T09:35:24.901Z,9.39
2019-03-12T09:36:24.946Z,9.31
2019-03-12T09:37:24.880Z,9.36
2019-03-12T09:38:24.874Z,9.33
2019-03-12T09:39:24.866Z,9.29
2019-03-12T09:40:24.848Z,9.54
2019-03-12T09:41:24.878Z,9.57
2019-03-12T09:42:24.829Z,9.83
2019-03-12T09:43:24.813Z,9.91
2019-03-12T09:44:24.805Z,10.02
2019-03-12T09:45:24.794Z,10.14
2019-03-12T09:46:24.803Z,10.47
2019-03-12T09:47:24.776Z,10.56
2019-03-12T09:48:24.782Z,10.33
2019-03-12T09:49:27.329Z,10.04
2019-03-12T09:50:24.742Z,9.93
2019-03-12T09:51:24.746Z,9.81
2019-03-12T09:52:24.726Z,9.93
2019-03-12T09:53:24.702Z,9.83
2019-03-12T09:54:24.693Z,9.81
2019-03-12T09:55:24.684Z,9.56
2019-03-12T09:56:24.772Z,9.51
2019-03-12T09:57:24.661Z,9.43
2019-03-12T09:58:24.648Z,9.29
2019-03-12T09:59:24.639Z,9.23
2019-03-12T10:00:24.626Z,9.01
2019-03-12T10:01:24.653Z,9.04
2019-03-12T10:02:24.605Z,9.02
2019-03-12T10:03:24.596Z,9.04
2019-03-12T10:04:24.719Z,8.86
2019-03-12T10:05:24.575Z,8.94
2019-03-12T10:06:24.583Z,8.94
2019-03-12T10:07:24.550Z,8.99
2019-03-12T10:08:24.542Z,9.04
2019-03-12T10:09:24.538Z,8.99
2019-03-12T10:10:24.524Z,9.08
2019-03-12T10:11:24.512Z,9.13
2019-03-12T10:12:24.531Z,8.94
2019-03-12T10:13:24.485Z,8.98
2019-03-12T10:14:24.478Z,8.95
2019-03-12T10:15:24.472Z,8.95
2019-03-12T10:16:24.456Z,8.86
2019-03-12T10:17:24.476Z,8.76
2019-03-12T10:18:24.434Z,8.68
2019-03-12T10:19:24.424Z,8.58
2019-03-12T10:20:24.597Z,8.59
2019-03-12T10:21:24.401Z,8.65
2019-03-12T10:22:24.495Z,8.80
2019-03-12T10:23:24.427Z,8.83
2019-03-12T10:24:24.368Z,8.84
2019-03-12T10:25:24.373Z,8.96
2019-03-12T10:26:24.347Z,8.98
2019-03-12T10:27:24.364Z,8.95
2019-03-12T10:28:24.328Z,9.05
2019-03-12T10:29:24.314Z,8.98
2019-03-12T10:30:24.304Z,8.98
2019-03-12T10:31:24.293Z,9.15
2019-03-12T10:32:24.303Z,9.18
2019-03-12T10:33:24.281Z,9.17
2019-03-12T10:34:29.710Z,9.42
2019-03-12T10:35:25.259Z,9.65
2019-03-12T10:36:24.337Z,9.68
2019-03-12T10:37:24.249Z,9.84
2019-03-12T10:38:24.221Z,9.90
2019-03-12T10:39:24.206Z,9.89
2019-03-12T10:40:24.197Z,10.04
2019-03-12T10:41:24.184Z,10.17
2019-03-12T10:42:24.211Z,10.47
2019-03-12T10:43:24.164Z,10.48
2019-03-12T10:44:24.151Z,10.56
2019-03-12T10:45:24.146Z,10.76
2019-03-12T10:46:24.132Z,10.56
2019-03-12T10:47:24.137Z,10.34
2019-03-12T10:48:24.119Z,10.33
2019-03-12T10:49:36.645Z,10.41
2019-03-12T10:50:25.130Z,10.33
2019-03-12T10:51:24.093Z,10.20
2019-03-12T10:52:24.098Z,10.25
2019-03-12T10:53:24.056Z,10.33
2019-03-12T10:54:24.052Z,10.74
2019-03-12T10:55:24.034Z,10.73
2019-03-12T10:56:24.028Z,10.86
2019-03-12T10:57:24.081Z,10.67
2019-03-12T10:58:24.000Z,10.68
2019-03-12T10:59:24.003Z,10.38
2019-03-12T11:00:23.991Z,10.25
2019-03-12T11:01:23.968Z,10.08
2019-03-12T11:02:23.972Z,9.99
2019-03-12T11:03:23.940Z,10.04
2019-03-12T11:04:23.945Z,10.30
2019-03-12T11:05:23.969Z,10.55
2019-03-12T11:06:23.908Z,10.64
2019-03-12T11:07:23.923Z,10.59
2019-03-12T11:08:23.885Z,10.38
2019-03-12T11:09:23.886Z,10.86
2019-03-12T11:10:23.867Z,11.47
2019-03-12T11:11:23.870Z,11.42
2019-03-12T11:12:23.888Z,11.62
2019-03-12T11:13:23.835Z,11.70
2019-03-12T11:14:23.821Z,11.47
2019-03-12T11:15:23.805Z,11.42
2019-03-12T11:16:23.819Z,11.14
2019-03-12T11:17:23.826Z,10.99
2019-03-12T11:18:23.795Z,10.94
2019-03-12T11:19:23.765Z,11.09
2019-03-12T11:20:23.754Z,11.27
2019-03-12T11:21:23.739Z,11.04
2019-03-12T11:22:23.747Z,11.06
2019-03-12T11:23:23.716Z,10.85
2019-03-12T11:24:23.709Z,11.14
2019-03-12T11:25:27.865Z,11.37
2019-03-12T11:26:23.684Z,11.51
2019-03-12T11:27:23.696Z,11.55
2019-03-12T11:28:26.654Z,11.24
2019-03-12T11:29:23.648Z,11.19
2019-03-12T11:30:23.639Z,11.24
2019-03-12T11:31:23.640Z,11.29
2019-03-12T11:32:23.637Z,11.29
2019-03-12T11:33:23.620Z,11.57
2019-03-12T11:34:23.602Z,11.27
2019-03-12T11:35:23.581Z,11.02
2019-03-12T11:36:23.573Z,10.74
2019-03-12T11:37:23.601Z,10.64
2019-03-12T11:38:23.563Z,10.67
2019-03-12T11:39:23.538Z,10.63
2019-03-12T11:40:23.561Z,10.63
2019-03-12T11:41:23.516Z,11.03
2019-03-12T11:42:23.541Z,11.09
2019-03-12T11:43:23.503Z,11.03
2019-03-12T11:44:23.487Z,11.24
2019-03-12T11:45:35.563Z,11.21
2019-03-12T11:46:24.464Z,11.04
2019-03-12T11:47:23.488Z,11.03
2019-03-12T11:48:23.457Z,11.04
2019-03-12T11:49:23.427Z,11.54
2019-03-12T11:50:23.464Z,11.79
2019-03-12T11:51:23.407Z,11.94
2019-03-12T11:52:23.393Z,12.12
2019-03-12T11:53:23.417Z,11.76
2019-03-12T11:54:23.399Z,11.78
2019-03-12T11:55:23.368Z,12.31
2019-03-12T11:56:23.348Z,12.27
2019-03-12T11:57:23.363Z,11.94
2019-03-12T11:58:23.353Z,11.94
2019-03-12T11:59:23.330Z,11.73
2019-03-12T12:00:23.340Z,11.70
2019-03-12T12:01:23.308Z,11.65
2019-03-12T12:02:23.281Z,11.17
2019-03-12T12:03:23.297Z,11.25
2019-03-12T12:04:23.259Z,11.40
2019-03-12T12:05:23.253Z,11.11
2019-03-12T12:06:23.247Z,11.14
2019-03-12T12:07:23.240Z,11.28
2019-03-12T12:08:23.265Z,11.42
2019-03-12T12:09:23.217Z,11.51
2019-03-12T12:10:23.192Z,11.52
2019-03-12T12:11:23.185Z,11.70
2019-03-12T12:12:23.172Z,11.61
2019-03-12T12:13:23.199Z,11.52
2019-03-12T12:14:23.153Z,11.37
2019-03-12T12:15:23.150Z,11.07
2019-03-12T12:16:23.126Z,11.06
2019-03-12T12:17:23.129Z,10.97
2019-03-12T12:18:23.134Z,10.91
2019-03-12T12:19:23.099Z,10.86
2019-03-12T12:20:29.567Z,10.97
2019-03-12T12:21:24.071Z,10.88
2019-03-12T12:22:23.068Z,10.76
2019-03-12T12:23:23.094Z,10.66
2019-03-12T12:24:23.045Z,10.59
2019-03-12T12:25:23.037Z,10.51
2019-03-12T12:26:23.016Z,10.48
2019-03-12T12:27:23.004Z,10.34
2019-03-12T12:28:23.014Z,10.51
2019-03-12T12:29:22.985Z,10.48
2019-03-12T12:30:23.073Z,10.56
2019-03-12T12:31:22.986Z,10.60
2019-03-12T12:32:22.965Z,10.63
2019-03-12T12:33:22.958Z,10.55
2019-03-12T12:34:22.925Z,10.67
2019-03-12T12:35:22.920Z,10.63
2019-03-12T12:36:22.902Z,10.78
2019-03-12T12:37:22.892Z,10.63
2019-03-12T12:38:22.920Z,10.61
2019-03-12T12:39:22.868Z,10.61
2019-03-12T12:40:22.861Z,10.67
2019-03-12T12:41:22.847Z,10.82
2019-03-12T12:42:22.834Z,10.82
2019-03-12T12:43:22.849Z,10.85
2019-03-12T12:44:22.820Z,10.91
2019-03-12T12:45:22.814Z,10.89
2019-03-12T12:46:22.793Z,10.88
2019-03-12T12:47:22.896Z,11.00
2019-03-12T12:48:22.802Z,10.85
2019-03-12T12:49:22.794Z,10.88
2019-03-12T12:50:22.918Z,10.73
2019-03-12T12:51:22.741Z,10.78
2019-03-12T12:52:22.724Z,10.73
2019-03-12T12:53:22.732Z,10.85
2019-03-12T12:54:22.826Z,11.00
2019-03-12T12:55:22.693Z,10.86
2019-03-12T12:56:22.679Z,10.84
2019-03-12T12:57:22.680Z,10.86
2019-03-12T12:58:22.935Z,10.92
2019-03-12T12:59:22.647Z,10.88
2019-03-12T13:00:22.644Z,10.76
2019-03-12T13:01:22.639Z,10.74
2019-03-12T13:02:22.620Z,10.86
2019-03-12T13:03:23.915Z,10.74
2019-03-12T13:04:22.590Z,10.74
2019-03-12T13:05:22.586Z,10.89
2019-03-12T13:06:22.590Z,10.91
2019-03-12T13:07:22.593Z,10.96
2019-03-12T13:08:22.572Z,11.00
2019-03-12T13:09:22.535Z,11.00
2019-03-12T13:10:22.730Z,11.11
2019-03-12T13:11:22.516Z,11.10
2019-03-12T13:12:22.566Z,11.06
2019-03-12T13:13:22.524Z,11.10